sensor_id;sensor_type;location;lat;lon;timestamp;P1;durP1;ratioP1;P2;durP2;ratioP2
12707;SDS011;6418;50.824;4.718;2023-02-26T00:00:24;19.80;;;7.43;;
12707;SDS011;6418;50.824;4.718;2023-02-26T00:02:53;18.93;;;7.63;;
12707;SDS011;6418;50.824;4.718;2023-02-26T00:05:20;21.07;;;7.67;;
12707;SDS011;6418;50.824;4.718;2023-02-26T00:07:47;20.33;;;8.07;;
12707;SDS011;6418;50.824;4.718;2023-02-26T00:10:14;19.30;;;7.60;;
12707;SDS011;6418;50.824;4.718;2023-02-26T00:12:41;15.80;;;7.30;;
12707;SDS011;6418;50.824;4.718;2023-02-26T00:15:10;17.77;;;6.90;;
12707;SDS011;6418;50.824;4.718;2023-02-26T00:17:41;18.70;;;7.63;;
12707;SDS011;6418;50.824;4.718;2023-02-26T00:20:15;15.67;;;7.83;;
12707;SDS011;6418;50.824;4.718;2023-02-26T00:22:43;17.67;;;6.97;;
12707;SDS011;6418;50.824;4.718;2023-02-26T00:25:10;18.33;;;7.20;;
12707;SDS011;6418;50.824;4.718;2023-02-26T00:27:38;19.37;;;7.03;;
12707;SDS011;6418;50.824;4.718;2023-02-26T00:30:07;18.90;;;6.97;;
12707;SDS011;6418;50.824;4.718;2023-02-26T00:32:35;16.07;;;7.17;;
12707;SDS011;6418;50.824;4.718;2023-02-26T00:35:04;16.43;;;7.07;;
12707;SDS011;6418;50.824;4.718;2023-02-26T00:37:37;20.20;;;7.03;;
12707;SDS011;6418;50.824;4.718;2023-02-26T00:40:22;16.60;;;7.13;;
12707;SDS011;6418;50.824;4.718;2023-02-26T00:42:55;21.60;;;7.47;;
12707;SDS011;6418;50.824;4.718;2023-02-26T00:45:22;18.40;;;7.27;;
12707;SDS011;6418;50.824;4.718;2023-02-26T00:47:50;16.93;;;7.07;;
12707;SDS011;6418;50.824;4.718;2023-02-26T00:50:25;19.00;;;7.30;;
12707;SDS011;6418;50.824;4.718;2023-02-26T00:52:58;19.80;;;7.40;;
12707;SDS011;6418;50.824;4.718;2023-02-26T00:55:29;20.10;;;7.23;;
12707;SDS011;6418;50.824;4.718;2023-02-26T00:57:56;18.57;;;7.67;;
12707;SDS011;6418;50.824;4.718;2023-02-26T01:00:23;16.97;;;6.13;;
12707;SDS011;6418;50.824;4.718;2023-02-26T01:02:50;18.43;;;6.90;;
12707;SDS011;6418;50.824;4.718;2023-02-26T01:05:18;21.00;;;7.47;;
12707;SDS011;6418;50.824;4.718;2023-02-26T01:07:46;22.20;;;7.37;;
12707;SDS011;6418;50.824;4.718;2023-02-26T01:10:25;19.63;;;7.60;;
12707;SDS011;6418;50.824;4.718;2023-02-26T01:12:52;15.83;;;7.30;;
12707;SDS011;6418;50.824;4.718;2023-02-26T01:15:21;17.87;;;8.00;;
12707;SDS011;6418;50.824;4.718;2023-02-26T01:17:49;21.00;;;7.07;;
12707;SDS011;6418;50.824;4.718;2023-02-26T01:20:21;15.83;;;7.37;;
12707;SDS011;6418;50.824;4.718;2023-02-26T01:22:53;18.33;;;7.77;;
12707;SDS011;6418;50.824;4.718;2023-02-26T01:25:27;18.87;;;7.40;;
12707;SDS011;6418;50.824;4.718;2023-02-26T01:28:00;18.17;;;7.70;;
12707;SDS011;6418;50.824;4.718;2023-02-26T01:30:27;15.67;;;7.60;;
12707;SDS011;6418;50.824;4.718;2023-02-26T01:32:56;21.33;;;7.17;;
12707;SDS011;6418;50.824;4.718;2023-02-26T01:35:31;15.93;;;7.13;;
12707;SDS011;6418;50.824;4.718;2023-02-26T01:38:09;16.83;;;7.10;;
12707;SDS011;6418;50.824;4.718;2023-02-26T01:41:00;23.13;;;7.80;;
12707;SDS011;6418;50.824;4.718;2023-02-26T01:43:49;20.03;;;7.67;;
12707;SDS011;6418;50.824;4.718;2023-02-26T01:46:24;14.33;;;7.20;;
12707;SDS011;6418;50.824;4.718;2023-02-26T01:48:56;17.07;;;7.77;;
12707;SDS011;6418;50.824;4.718;2023-02-26T01:51:39;25.90;;;8.17;;
12707;SDS011;6418;50.824;4.718;2023-02-26T01:54:12;21.37;;;8.07;;
12707;SDS011;6418;50.824;4.718;2023-02-26T01:56:41;16.80;;;7.50;;
12707;SDS011;6418;50.824;4.718;2023-02-26T01:59:11;19.30;;;7.63;;
12707;SDS011;6418;50.824;4.718;2023-02-26T02:01:40;16.43;;;7.27;;
12707;SDS011;6418;50.824;4.718;2023-02-26T02:04:09;18.00;;;7.37;;
12707;SDS011;6418;50.824;4.718;2023-02-26T02:06:38;17.67;;;7.60;;
12707;SDS011;6418;50.824;4.718;2023-02-26T02:09:05;16.03;;;7.77;;
12707;SDS011;6418;50.824;4.718;2023-02-26T02:11:33;17.03;;;7.53;;
12707;SDS011;6418;50.824;4.718;2023-02-26T02:14:07;19.57;;;7.70;;
12707;SDS011;6418;50.824;4.718;2023-02-26T02:16:45;21.87;;;7.97;;
12707;SDS011;6418;50.824;4.718;2023-02-26T02:22:34;17.30;;;8.00;;
12707;SDS011;6418;50.824;4.718;2023-02-26T02:25:21;15.17;;;7.60;;
12707;SDS011;6418;50.824;4.718;2023-02-26T02:28:20;22.70;;;7.73;;
12707;SDS011;6418;50.824;4.718;2023-02-26T02:31:00;16.50;;;7.60;;
12707;SDS011;6418;50.824;4.718;2023-02-26T02:33:33;16.03;;;7.93;;
12707;SDS011;6418;50.824;4.718;2023-02-26T02:36:05;25.60;;;7.83;;
12707;SDS011;6418;50.824;4.718;2023-02-26T02:38:38;17.90;;;7.90;;
12707;SDS011;6418;50.824;4.718;2023-02-26T02:41:12;24.90;;;7.40;;
12707;SDS011;6418;50.824;4.718;2023-02-26T02:43:43;22.03;;;7.90;;
12707;SDS011;6418;50.824;4.718;2023-02-26T02:46:14;19.07;;;7.73;;
12707;SDS011;6418;50.824;4.718;2023-02-26T02:48:46;21.80;;;7.73;;
12707;SDS011;6418;50.824;4.718;2023-02-26T02:51:16;21.43;;;7.93;;
12707;SDS011;6418;50.824;4.718;2023-02-26T02:53:48;17.47;;;7.50;;
12707;SDS011;6418;50.824;4.718;2023-02-26T02:56:18;18.67;;;8.07;;
12707;SDS011;6418;50.824;4.718;2023-02-26T02:58:50;21.63;;;7.60;;
12707;SDS011;6418;50.824;4.718;2023-02-26T03:01:22;17.27;;;7.47;;
12707;SDS011;6418;50.824;4.718;2023-02-26T03:03:54;18.43;;;6.93;;
12707;SDS011;6418;50.824;4.718;2023-02-26T03:06:24;17.83;;;7.27;;
12707;SDS011;6418;50.824;4.718;2023-02-26T03:08:51;18.47;;;7.23;;
12707;SDS011;6418;50.824;4.718;2023-02-26T03:11:19;19.20;;;7.93;;
12707;SDS011;6418;50.824;4.718;2023-02-26T03:13:46;20.80;;;7.83;;
12707;SDS011;6418;50.824;4.718;2023-02-26T03:16:24;17.70;;;7.03;;
12707;SDS011;6418;50.824;4.718;2023-02-26T03:19:07;15.70;;;6.67;;
12707;SDS011;6418;50.824;4.718;2023-02-26T03:21:45;17.40;;;7.40;;
12707;SDS011;6418;50.824;4.718;2023-02-26T03:24:17;23.93;;;7.40;;
12707;SDS011;6418;50.824;4.718;2023-02-26T03:26:54;18.93;;;7.67;;
12707;SDS011;6418;50.824;4.718;2023-02-26T03:29:25;18.77;;;6.87;;
12707;SDS011;6418;50.824;4.718;2023-02-26T03:32:01;18.40;;;6.70;;
12707;SDS011;6418;50.824;4.718;2023-02-26T03:34:34;16.70;;;6.90;;
12707;SDS011;6418;50.824;4.718;2023-02-26T03:37:07;17.57;;;6.90;;
12707;SDS011;6418;50.824;4.718;2023-02-26T03:39:41;17.13;;;6.97;;
12707;SDS011;6418;50.824;4.718;2023-02-26T03:42:12;20.40;;;7.40;;
12707;SDS011;6418;50.824;4.718;2023-02-26T03:44:46;16.17;;;7.23;;
12707;SDS011;6418;50.824;4.718;2023-02-26T03:47:18;16.97;;;6.47;;
12707;SDS011;6418;50.824;4.718;2023-02-26T03:49:48;17.47;;;6.57;;
12707;SDS011;6418;50.824;4.718;2023-02-26T03:52:18;19.77;;;6.57;;
12707;SDS011;6418;50.824;4.718;2023-02-26T03:54:49;15.73;;;6.90;;
12707;SDS011;6418;50.824;4.718;2023-02-26T03:57:20;17.70;;;6.97;;
12707;SDS011;6418;50.824;4.718;2023-02-26T03:59:47;17.77;;;6.97;;
12707;SDS011;6418;50.824;4.718;2023-02-26T04:02:16;16.83;;;6.90;;
12707;SDS011;6418;50.824;4.718;2023-02-26T04:04:49;20.77;;;7.73;;
12707;SDS011;6418;50.824;4.718;2023-02-26T04:07:19;14.03;;;6.23;;
12707;SDS011;6418;50.824;4.718;2023-02-26T04:09:47;16.83;;;6.30;;
12707;SDS011;6418;50.824;4.718;2023-02-26T04:12:19;17.90;;;6.47;;
12707;SDS011;6418;50.824;4.718;2023-02-26T04:14:47;14.60;;;6.30;;
12707;SDS011;6418;50.824;4.718;2023-02-26T04:17:14;17.60;;;6.37;;
12707;SDS011;6418;50.824;4.718;2023-02-26T04:19:42;18.07;;;6.93;;
12707;SDS011;6418;50.824;4.718;2023-02-26T04:22:09;16.83;;;7.03;;
12707;SDS011;6418;50.824;4.718;2023-02-26T04:24:37;15.00;;;6.50;;
12707;SDS011;6418;50.824;4.718;2023-02-26T04:27:04;20.97;;;6.73;;
12707;SDS011;6418;50.824;4.718;2023-02-26T04:29:31;16.53;;;6.03;;
12707;SDS011;6418;50.824;4.718;2023-02-26T04:31:58;17.27;;;6.50;;
12707;SDS011;6418;50.824;4.718;2023-02-26T04:34:25;19.27;;;6.20;;
12707;SDS011;6418;50.824;4.718;2023-02-26T04:36:54;13.37;;;5.97;;
12707;SDS011;6418;50.824;4.718;2023-02-26T04:39:21;15.83;;;5.97;;
12707;SDS011;6418;50.824;4.718;2023-02-26T04:41:48;15.23;;;5.40;;
12707;SDS011;6418;50.824;4.718;2023-02-26T04:44:15;15.57;;;5.60;;
12707;SDS011;6418;50.824;4.718;2023-02-26T04:46:41;18.90;;;5.87;;
12707;SDS011;6418;50.824;4.718;2023-02-26T04:49:09;13.83;;;5.30;;
12707;SDS011;6418;50.824;4.718;2023-02-26T04:51:35;16.10;;;5.40;;
12707;SDS011;6418;50.824;4.718;2023-02-26T04:54:04;19.63;;;5.80;;
12707;SDS011;6418;50.824;4.718;2023-02-26T04:56:31;14.83;;;5.03;;
12707;SDS011;6418;50.824;4.718;2023-02-26T04:58:58;16.57;;;5.07;;
12707;SDS011;6418;50.824;4.718;2023-02-26T05:01:25;12.90;;;4.47;;
12707;SDS011;6418;50.824;4.718;2023-02-26T05:03:52;11.90;;;5.33;;
12707;SDS011;6418;50.824;4.718;2023-02-26T05:06:18;11.00;;;4.60;;
12707;SDS011;6418;50.824;4.718;2023-02-26T05:08:45;12.87;;;4.50;;
12707;SDS011;6418;50.824;4.718;2023-02-26T05:11:14;9.77;;;4.63;;
12707;SDS011;6418;50.824;4.718;2023-02-26T05:13:41;13.43;;;4.33;;
12707;SDS011;6418;50.824;4.718;2023-02-26T05:16:07;13.00;;;4.40;;
12707;SDS011;6418;50.824;4.718;2023-02-26T05:18:34;13.20;;;4.33;;
12707;SDS011;6418;50.824;4.718;2023-02-26T05:21:02;13.93;;;4.80;;
12707;SDS011;6418;50.824;4.718;2023-02-26T05:23:29;10.30;;;4.03;;
12707;SDS011;6418;50.824;4.718;2023-02-26T05:25:57;9.57;;;4.20;;
12707;SDS011;6418;50.824;4.718;2023-02-26T05:28:25;9.03;;;3.97;;
12707;SDS011;6418;50.824;4.718;2023-02-26T05:30:54;15.70;;;4.73;;
12707;SDS011;6418;50.824;4.718;2023-02-26T05:33:22;11.93;;;4.20;;
12707;SDS011;6418;50.824;4.718;2023-02-26T05:35:49;9.93;;;4.13;;
12707;SDS011;6418;50.824;4.718;2023-02-26T05:38:16;14.07;;;4.93;;
12707;SDS011;6418;50.824;4.718;2023-02-26T05:40:43;10.57;;;4.07;;
12707;SDS011;6418;50.824;4.718;2023-02-26T05:43:09;15.77;;;4.83;;
12707;SDS011;6418;50.824;4.718;2023-02-26T05:45:38;12.83;;;4.00;;
12707;SDS011;6418;50.824;4.718;2023-02-26T05:48:05;9.37;;;4.30;;
12707;SDS011;6418;50.824;4.718;2023-02-26T05:50:32;12.13;;;4.43;;
12707;SDS011;6418;50.824;4.718;2023-02-26T05:52:59;9.37;;;4.17;;
12707;SDS011;6418;50.824;4.718;2023-02-26T05:55:26;11.77;;;4.53;;
12707;SDS011;6418;50.824;4.718;2023-02-26T05:57:53;12.93;;;4.53;;
12707;SDS011;6418;50.824;4.718;2023-02-26T06:00:20;10.33;;;4.47;;
12707;SDS011;6418;50.824;4.718;2023-02-26T06:02:48;14.10;;;4.67;;
12707;SDS011;6418;50.824;4.718;2023-02-26T06:05:15;13.50;;;4.50;;
12707;SDS011;6418;50.824;4.718;2023-02-26T06:07:42;13.80;;;4.30;;
12707;SDS011;6418;50.824;4.718;2023-02-26T06:10:09;14.63;;;4.47;;
12707;SDS011;6418;50.824;4.718;2023-02-26T06:12:37;12.90;;;4.63;;
12707;SDS011;6418;50.824;4.718;2023-02-26T06:15:05;12.80;;;4.43;;
12707;SDS011;6418;50.824;4.718;2023-02-26T06:17:33;12.87;;;4.80;;
12707;SDS011;6418;50.824;4.718;2023-02-26T06:20:02;11.50;;;4.30;;
12707;SDS011;6418;50.824;4.718;2023-02-26T06:22:29;10.30;;;4.17;;
12707;SDS011;6418;50.824;4.718;2023-02-26T06:24:56;10.63;;;4.17;;
12707;SDS011;6418;50.824;4.718;2023-02-26T06:27:24;10.23;;;4.37;;
12707;SDS011;6418;50.824;4.718;2023-02-26T06:29:51;13.53;;;4.40;;
12707;SDS011;6418;50.824;4.718;2023-02-26T06:32:18;6.60;;;4.00;;
12707;SDS011;6418;50.824;4.718;2023-02-26T06:34:44;10.83;;;4.40;;
12707;SDS011;6418;50.824;4.718;2023-02-26T06:37:13;14.97;;;4.53;;
12707;SDS011;6418;50.824;4.718;2023-02-26T06:39:40;9.40;;;4.17;;
12707;SDS011;6418;50.824;4.718;2023-02-26T06:42:07;10.50;;;4.40;;
12707;SDS011;6418;50.824;4.718;2023-02-26T06:44:34;9.43;;;3.90;;
12707;SDS011;6418;50.824;4.718;2023-02-26T06:47:01;12.17;;;4.27;;
12707;SDS011;6418;50.824;4.718;2023-02-26T06:49:28;11.93;;;4.33;;
12707;SDS011;6418;50.824;4.718;2023-02-26T06:51:54;11.83;;;4.93;;
12707;SDS011;6418;50.824;4.718;2023-02-26T06:54:23;12.00;;;4.00;;
12707;SDS011;6418;50.824;4.718;2023-02-26T06:56:50;10.27;;;4.37;;
12707;SDS011;6418;50.824;4.718;2023-02-26T06:59:17;11.07;;;4.30;;
12707;SDS011;6418;50.824;4.718;2023-02-26T07:01:44;8.47;;;4.40;;
12707;SDS011;6418;50.824;4.718;2023-02-26T07:04:10;6.83;;;3.60;;
12707;SDS011;6418;50.824;4.718;2023-02-26T07:06:37;11.27;;;4.30;;
12707;SDS011;6418;50.824;4.718;2023-02-26T07:09:04;12.57;;;4.03;;
12707;SDS011;6418;50.824;4.718;2023-02-26T07:11:33;12.93;;;4.00;;
12707;SDS011;6418;50.824;4.718;2023-02-26T07:14:00;9.53;;;4.00;;
12707;SDS011;6418;50.824;4.718;2023-02-26T07:16:26;9.87;;;3.80;;
12707;SDS011;6418;50.824;4.718;2023-02-26T07:18:53;6.80;;;4.00;;
12707;SDS011;6418;50.824;4.718;2023-02-26T07:21:20;10.60;;;4.00;;
12707;SDS011;6418;50.824;4.718;2023-02-26T07:23:47;12.20;;;4.03;;
12707;SDS011;6418;50.824;4.718;2023-02-26T07:26:14;9.10;;;3.73;;
12707;SDS011;6418;50.824;4.718;2023-02-26T07:28:43;11.93;;;3.80;;
12707;SDS011;6418;50.824;4.718;2023-02-26T07:31:10;9.63;;;4.27;;
12707;SDS011;6418;50.824;4.718;2023-02-26T07:33:37;12.00;;;4.13;;
12707;SDS011;6418;50.824;4.718;2023-02-26T07:36:04;7.10;;;3.90;;
12707;SDS011;6418;50.824;4.718;2023-02-26T07:38:31;11.37;;;4.20;;
12707;SDS011;6418;50.824;4.718;2023-02-26T07:40:58;8.03;;;4.07;;
12707;SDS011;6418;50.824;4.718;2023-02-26T07:43:25;6.83;;;3.80;;
12707;SDS011;6418;50.824;4.718;2023-02-26T07:45:54;9.97;;;3.60;;
12707;SDS011;6418;50.824;4.718;2023-02-26T07:48:21;8.80;;;3.90;;
12707;SDS011;6418;50.824;4.718;2023-02-26T07:50:49;12.90;;;4.20;;
12707;SDS011;6418;50.824;4.718;2023-02-26T07:53:16;7.80;;;3.77;;
12707;SDS011;6418;50.824;4.718;2023-02-26T07:55:43;10.10;;;4.10;;
12707;SDS011;6418;50.824;4.718;2023-02-26T07:58:10;10.83;;;3.80;;
12707;SDS011;6418;50.824;4.718;2023-02-26T08:00:37;9.57;;;3.70;;
12707;SDS011;6418;50.824;4.718;2023-02-26T08:03:05;8.20;;;3.53;;
12707;SDS011;6418;50.824;4.718;2023-02-26T08:05:32;11.47;;;3.77;;
12707;SDS011;6418;50.824;4.718;2023-02-26T08:08:00;9.03;;;4.10;;
12707;SDS011;6418;50.824;4.718;2023-02-26T08:10:27;10.33;;;3.73;;
12707;SDS011;6418;50.824;4.718;2023-02-26T08:12:54;11.60;;;3.50;;
12707;SDS011;6418;50.824;4.718;2023-02-26T08:15:21;8.23;;;3.90;;
12707;SDS011;6418;50.824;4.718;2023-02-26T08:17:50;7.57;;;3.70;;
12707;SDS011;6418;50.824;4.718;2023-02-26T08:20:19;10.83;;;3.70;;
12707;SDS011;6418;50.824;4.718;2023-02-26T08:22:46;12.80;;;4.73;;
12707;SDS011;6418;50.824;4.718;2023-02-26T08:25:13;7.70;;;3.43;;
12707;SDS011;6418;50.824;4.718;2023-02-26T08:27:40;9.53;;;4.17;;
12707;SDS011;6418;50.824;4.718;2023-02-26T08:30:09;7.93;;;3.43;;
12707;SDS011;6418;50.824;4.718;2023-02-26T08:32:37;11.77;;;3.93;;
12707;SDS011;6418;50.824;4.718;2023-02-26T08:35:06;9.50;;;3.70;;
12707;SDS011;6418;50.824;4.718;2023-02-26T08:37:35;10.87;;;3.73;;
12707;SDS011;6418;50.824;4.718;2023-02-26T08:40:02;8.47;;;3.40;;
12707;SDS011;6418;50.824;4.718;2023-02-26T08:42:30;10.87;;;3.33;;
12707;SDS011;6418;50.824;4.718;2023-02-26T08:44:57;10.43;;;3.43;;
12707;SDS011;6418;50.824;4.718;2023-02-26T08:47:24;7.77;;;3.77;;
12707;SDS011;6418;50.824;4.718;2023-02-26T08:49:53;6.57;;;3.10;;
12707;SDS011;6418;50.824;4.718;2023-02-26T08:52:20;9.17;;;3.80;;
12707;SDS011;6418;50.824;4.718;2023-02-26T08:54:48;6.87;;;3.33;;
12707;SDS011;6418;50.824;4.718;2023-02-26T08:57:15;10.53;;;3.73;;
12707;SDS011;6418;50.824;4.718;2023-02-26T08:59:42;6.97;;;3.10;;
12707;SDS011;6418;50.824;4.718;2023-02-26T09:02:09;8.63;;;3.40;;
12707;SDS011;6418;50.824;4.718;2023-02-26T09:04:37;8.17;;;3.40;;
12707;SDS011;6418;50.824;4.718;2023-02-26T09:07:04;7.17;;;3.30;;
12707;SDS011;6418;50.824;4.718;2023-02-26T09:09:31;8.27;;;2.90;;
12707;SDS011;6418;50.824;4.718;2023-02-26T09:12:01;10.63;;;3.77;;
12707;SDS011;6418;50.824;4.718;2023-02-26T09:14:28;6.63;;;3.10;;
12707;SDS011;6418;50.824;4.718;2023-02-26T09:16:54;7.10;;;2.80;;
12707;SDS011;6418;50.824;4.718;2023-02-26T09:19:21;9.93;;;3.33;;
12707;SDS011;6418;50.824;4.718;2023-02-26T09:21:48;8.10;;;3.53;;
12707;SDS011;6418;50.824;4.718;2023-02-26T09:24:15;7.60;;;3.30;;
12707;SDS011;6418;50.824;4.718;2023-02-26T09:26:42;7.07;;;3.40;;
12707;SDS011;6418;50.824;4.718;2023-02-26T09:29:10;5.73;;;2.77;;
12707;SDS011;6418;50.824;4.718;2023-02-26T09:31:38;7.00;;;2.70;;
12707;SDS011;6418;50.824;4.718;2023-02-26T09:34:05;8.80;;;3.10;;
12707;SDS011;6418;50.824;4.718;2023-02-26T09:36:32;8.17;;;3.60;;
12707;SDS011;6418;50.824;4.718;2023-02-26T09:39:01;6.67;;;3.23;;
12707;SDS011;6418;50.824;4.718;2023-02-26T09:41:29;8.13;;;3.33;;
12707;SDS011;6418;50.824;4.718;2023-02-26T09:44:04;7.27;;;3.27;;
12707;SDS011;6418;50.824;4.718;2023-02-26T09:46:40;5.00;;;3.27;;
12707;SDS011;6418;50.824;4.718;2023-02-26T09:49:15;7.90;;;3.43;;
12707;SDS011;6418;50.824;4.718;2023-02-26T09:51:47;7.67;;;3.37;;
12707;SDS011;6418;50.824;4.718;2023-02-26T09:54:19;8.33;;;3.23;;
12707;SDS011;6418;50.824;4.718;2023-02-26T09:56:49;6.63;;;2.93;;
12707;SDS011;6418;50.824;4.718;2023-02-26T09:59:18;7.87;;;3.00;;
12707;SDS011;6418;50.824;4.718;2023-02-26T10:01:47;7.40;;;3.27;;
12707;SDS011;6418;50.824;4.718;2023-02-26T10:04:26;7.20;;;3.30;;
12707;SDS011;6418;50.824;4.718;2023-02-26T10:07:07;8.57;;;2.97;;
12707;SDS011;6418;50.824;4.718;2023-02-26T10:09:46;4.60;;;2.50;;
12707;SDS011;6418;50.824;4.718;2023-02-26T10:12:21;5.90;;;2.60;;
12707;SDS011;6418;50.824;4.718;2023-02-26T10:14:52;5.77;;;2.63;;
12707;SDS011;6418;50.824;4.718;2023-02-26T10:17:25;6.53;;;2.97;;
12707;SDS011;6418;50.824;4.718;2023-02-26T10:19:57;5.83;;;2.80;;
12707;SDS011;6418;50.824;4.718;2023-02-26T10:22:29;5.03;;;2.80;;
12707;SDS011;6418;50.824;4.718;2023-02-26T10:25:01;4.77;;;2.40;;
12707;SDS011;6418;50.824;4.718;2023-02-26T10:27:39;10.90;;;2.87;;
12707;SDS011;6418;50.824;4.718;2023-02-26T10:30:15;6.20;;;3.10;;
12707;SDS011;6418;50.824;4.718;2023-02-26T10:32:54;5.23;;;2.50;;
12707;SDS011;6418;50.824;4.718;2023-02-26T10:35:25;5.97;;;2.47;;
12707;SDS011;6418;50.824;4.718;2023-02-26T10:37:55;6.10;;;2.67;;
12707;SDS011;6418;50.824;4.718;2023-02-26T10:40:27;5.93;;;3.00;;
12707;SDS011;6418;50.824;4.718;2023-02-26T10:42:58;4.83;;;2.67;;
12707;SDS011;6418;50.824;4.718;2023-02-26T10:45:34;5.20;;;2.83;;
12707;SDS011;6418;50.824;4.718;2023-02-26T10:48:16;6.50;;;2.87;;
12707;SDS011;6418;50.824;4.718;2023-02-26T10:50:52;5.87;;;2.80;;
12707;SDS011;6418;50.824;4.718;2023-02-26T10:53:21;3.90;;;2.87;;
12707;SDS011;6418;50.824;4.718;2023-02-26T10:55:49;5.50;;;2.63;;
12707;SDS011;6418;50.824;4.718;2023-02-26T10:58:22;8.17;;;2.63;;
12707;SDS011;6418;50.824;4.718;2023-02-26T11:00:50;6.03;;;2.80;;
12707;SDS011;6418;50.824;4.718;2023-02-26T11:03:20;8.80;;;3.07;;
12707;SDS011;6418;50.824;4.718;2023-02-26T11:05:52;5.80;;;3.20;;
12707;SDS011;6418;50.824;4.718;2023-02-26T11:08:22;3.67;;;2.60;;
12707;SDS011;6418;50.824;4.718;2023-02-26T11:10:52;7.70;;;3.00;;
12707;SDS011;6418;50.824;4.718;2023-02-26T11:13:20;8.10;;;3.10;;
12707;SDS011;6418;50.824;4.718;2023-02-26T11:15:49;3.90;;;2.90;;
12707;SDS011;6418;50.824;4.718;2023-02-26T11:18:20;12.70;;;5.33;;
12707;SDS011;6418;50.824;4.718;2023-02-26T11:20:49;6.83;;;3.30;;
12707;SDS011;6418;50.824;4.718;2023-02-26T11:23:20;5.83;;;3.60;;
12707;SDS011;6418;50.824;4.718;2023-02-26T11:25:51;9.97;;;3.10;;
12707;SDS011;6418;50.824;4.718;2023-02-26T11:28:20;6.70;;;3.40;;
12707;SDS011;6418;50.824;4.718;2023-02-26T11:30:49;24.50;;;13.03;;
12707;SDS011;6418;50.824;4.718;2023-02-26T11:33:22;6.20;;;3.43;;
12707;SDS011;6418;50.824;4.718;2023-02-26T11:35:54;7.60;;;3.37;;
12707;SDS011;6418;50.824;4.718;2023-02-26T11:38:25;7.00;;;4.57;;
12707;SDS011;6418;50.824;4.718;2023-02-26T11:40:54;7.77;;;3.50;;
12707;SDS011;6418;50.824;4.718;2023-02-26T11:43:22;5.77;;;3.50;;
12707;SDS011;6418;50.824;4.718;2023-02-26T11:45:52;5.37;;;3.20;;
12707;SDS011;6418;50.824;4.718;2023-02-26T11:48:27;4.63;;;2.63;;
12707;SDS011;6418;50.824;4.718;2023-02-26T11:51:12;5.80;;;3.00;;
12707;SDS011;6418;50.824;4.718;2023-02-26T11:53:41;5.47;;;3.07;;
12707;SDS011;6418;50.824;4.718;2023-02-26T11:56:14;6.53;;;3.20;;
12707;SDS011;6418;50.824;4.718;2023-02-26T11:58:51;4.90;;;2.87;;
12707;SDS011;6418;50.824;4.718;2023-02-26T12:01:20;5.57;;;2.90;;
12707;SDS011;6418;50.824;4.718;2023-02-26T12:03:54;8.07;;;3.83;;
12707;SDS011;6418;50.824;4.718;2023-02-26T12:06:24;6.37;;;2.57;;
12707;SDS011;6418;50.824;4.718;2023-02-26T12:08:51;5.53;;;3.10;;
12707;SDS011;6418;50.824;4.718;2023-02-26T12:14:11;4.73;;;3.03;;
12707;SDS011;6418;50.824;4.718;2023-02-26T12:16:50;4.70;;;2.57;;
12707;SDS011;6418;50.824;4.718;2023-02-26T12:19:29;3.27;;;2.60;;
12707;SDS011;6418;50.824;4.718;2023-02-26T12:25:04;3.17;;;2.70;;
12707;SDS011;6418;50.824;4.718;2023-02-26T12:27:52;3.67;;;2.50;;
12707;SDS011;6418;50.824;4.718;2023-02-26T12:30:45;5.03;;;2.97;;
12707;SDS011;6418;50.824;4.718;2023-02-26T12:33:28;3.20;;;2.90;;
12707;SDS011;6418;50.824;4.718;2023-02-26T12:36:12;4.67;;;3.00;;
12707;SDS011;6418;50.824;4.718;2023-02-26T12:38:52;2.63;;;1.83;;
12707;SDS011;6418;50.824;4.718;2023-02-26T12:41:29;3.13;;;2.73;;
12707;SDS011;6418;50.824;4.718;2023-02-26T12:44:13;3.47;;;2.27;;
12707;SDS011;6418;50.824;4.718;2023-02-26T12:46:52;8.33;;;2.83;;
12707;SDS011;6418;50.824;4.718;2023-02-26T12:49:42;6.63;;;2.90;;
12707;SDS011;6418;50.824;4.718;2023-02-26T12:52:37;3.00;;;2.20;;
12707;SDS011;6418;50.824;4.718;2023-02-26T12:55:19;4.27;;;2.30;;
12707;SDS011;6418;50.824;4.718;2023-02-26T12:58:12;5.57;;;2.67;;
12707;SDS011;6418;50.824;4.718;2023-02-26T13:01:02;5.77;;;2.47;;
12707;SDS011;6418;50.824;4.718;2023-02-26T13:03:59;4.03;;;2.70;;
12707;SDS011;6418;50.824;4.718;2023-02-26T13:06:53;5.73;;;3.10;;
12707;SDS011;6418;50.824;4.718;2023-02-26T13:09:51;6.03;;;3.00;;
12707;SDS011;6418;50.824;4.718;2023-02-26T13:12:30;4.30;;;2.57;;
12707;SDS011;6418;50.824;4.718;2023-02-26T13:15:09;3.90;;;2.63;;
12707;SDS011;6418;50.824;4.718;2023-02-26T13:18:00;4.60;;;2.60;;
12707;SDS011;6418;50.824;4.718;2023-02-26T13:20:31;7.47;;;2.83;;
12707;SDS011;6418;50.824;4.718;2023-02-26T13:23:03;3.73;;;2.73;;
12707;SDS011;6418;50.824;4.718;2023-02-26T13:25:45;4.20;;;2.50;;
12707;SDS011;6418;50.824;4.718;2023-02-26T13:28:19;3.73;;;2.70;;
12707;SDS011;6418;50.824;4.718;2023-02-26T13:30:52;4.17;;;2.97;;
12707;SDS011;6418;50.824;4.718;2023-02-26T13:33:22;3.23;;;2.50;;
12707;SDS011;6418;50.824;4.718;2023-02-26T13:35:52;4.73;;;2.67;;
12707;SDS011;6418;50.824;4.718;2023-02-26T13:38:21;3.93;;;2.07;;
12707;SDS011;6418;50.824;4.718;2023-02-26T13:40:57;4.90;;;2.63;;
12707;SDS011;6418;50.824;4.718;2023-02-26T13:43:36;5.67;;;3.17;;
12707;SDS011;6418;50.824;4.718;2023-02-26T13:46:23;2.70;;;2.43;;
12707;SDS011;6418;50.824;4.718;2023-02-26T13:49:03;4.70;;;2.73;;
12707;SDS011;6418;50.824;4.718;2023-02-26T13:51:38;5.53;;;2.57;;
12707;SDS011;6418;50.824;4.718;2023-02-26T13:54:27;3.70;;;2.17;;
12707;SDS011;6418;50.824;4.718;2023-02-26T13:57:07;4.87;;;2.57;;
12707;SDS011;6418;50.824;4.718;2023-02-26T13:59:49;2.43;;;2.23;;
12707;SDS011;6418;50.824;4.718;2023-02-26T14:02:35;5.20;;;2.40;;
12707;SDS011;6418;50.824;4.718;2023-02-26T14:05:50;3.67;;;2.50;;
12707;SDS011;6418;50.824;4.718;2023-02-26T14:14:24;2.33;;;2.13;;
12707;SDS011;6418;50.824;4.718;2023-02-26T14:22:50;4.83;;;2.83;;
12707;SDS011;6418;50.824;4.718;2023-02-26T14:25:20;4.60;;;2.30;;
12707;SDS011;6418;50.824;4.718;2023-02-26T14:30:50;5.53;;;2.93;;
12707;SDS011;6418;50.824;4.718;2023-02-26T14:33:25;3.33;;;2.40;;
12707;SDS011;6418;50.824;4.718;2023-02-26T14:35:54;4.07;;;2.87;;
12707;SDS011;6418;50.824;4.718;2023-02-26T14:38:24;6.37;;;3.03;;
12707;SDS011;6418;50.824;4.718;2023-02-26T14:40:55;3.40;;;2.77;;
12707;SDS011;6418;50.824;4.718;2023-02-26T14:43:30;7.83;;;3.13;;
12707;SDS011;6418;50.824;4.718;2023-02-26T14:46:03;5.47;;;2.83;;
12707;SDS011;6418;50.824;4.718;2023-02-26T14:48:30;3.57;;;2.37;;
12707;SDS011;6418;50.824;4.718;2023-02-26T14:51:03;6.17;;;2.67;;
12707;SDS011;6418;50.824;4.718;2023-02-26T14:53:45;7.27;;;3.17;;
12707;SDS011;6418;50.824;4.718;2023-02-26T14:56:25;7.63;;;3.00;;
12707;SDS011;6418;50.824;4.718;2023-02-26T14:59:07;4.33;;;2.67;;
12707;SDS011;6418;50.824;4.718;2023-02-26T15:01:49;4.27;;;2.80;;
12707;SDS011;6418;50.824;4.718;2023-02-26T15:07:26;4.03;;;3.17;;
12707;SDS011;6418;50.824;4.718;2023-02-26T15:10:12;3.27;;;2.53;;
12707;SDS011;6418;50.824;4.718;2023-02-26T15:12:55;9.00;;;3.50;;
12707;SDS011;6418;50.824;4.718;2023-02-26T15:15:37;5.47;;;2.77;;
12707;SDS011;6418;50.824;4.718;2023-02-26T15:18:22;5.33;;;3.23;;
12707;SDS011;6418;50.824;4.718;2023-02-26T15:21:05;4.17;;;2.47;;
12707;SDS011;6418;50.824;4.718;2023-02-26T15:23:38;5.13;;;2.37;;
12707;SDS011;6418;50.824;4.718;2023-02-26T15:26:07;4.57;;;2.83;;
12707;SDS011;6418;50.824;4.718;2023-02-26T15:28:43;3.60;;;2.57;;
12707;SDS011;6418;50.824;4.718;2023-02-26T15:31:11;5.73;;;2.70;;
12707;SDS011;6418;50.824;4.718;2023-02-26T15:33:39;7.50;;;4.00;;
12707;SDS011;6418;50.824;4.718;2023-02-26T15:36:10;6.23;;;3.27;;
12707;SDS011;6418;50.824;4.718;2023-02-26T15:38:44;5.23;;;2.70;;
12707;SDS011;6418;50.824;4.718;2023-02-26T15:41:13;3.00;;;2.67;;
12707;SDS011;6418;50.824;4.718;2023-02-26T15:43:43;2.93;;;2.33;;
12707;SDS011;6418;50.824;4.718;2023-02-26T15:46:13;6.73;;;3.00;;
12707;SDS011;6418;50.824;4.718;2023-02-26T15:48:42;6.67;;;2.77;;